This demonstration page uses our WeatherBlox Daily Observations layout. Learn more.

Left ArrowRight Arrow

Hourly Observations for July 23, 2020

Temp ( °F °C ) Dew Point ( °F °C ) Humidity (%) Winds ( mph kmh ) Pressure ( in mb ) Visibility ( mi km ) Precip ( " mm )
12:54 am 00:54 Clear 75 23.9 67 19.4 76 76 SE 9 15 30 1016 10 16.0934 0 0
1:54 am 01:54 Clear 76 24.4 66 18.9 72 72 SE 8 13 30 1016 10 16.0934 0 0
2:54 am 02:54 Clear 75 23.9 66 18.9 74 74 SE 9 15 29.99 1016 10 16.0934 0 0
3:54 am 03:54 Partly Cloudy 73 22.8 66 18.9 79 79 SSE 6 9 30 1016 10 16.0934 0 0
4:54 am 04:54 Mostly Cloudy 74 23.3 66 18.9 76 76 SE 9 15 29.99 1016 10 16.0934 0 0
5:54 am 05:54 Clear 72 22.2 67 19.4 84 84 S 5 7 30 1016 10 16.0934 0 0
6:54 am 06:54 Sunny 72 22.2 67 19.4 84 84 SE 3 6 30.01 1016 9 14.48406 0 0
7:54 am 07:54 Sunny 75 23.9 69 20.6 82 82 SSE 9 15 30.02 1017 9 14.48406 0 0
8:54 am 08:54 Sunny 76 24.4 69 20.6 79 79 S 8 13 30.03 1017 9 14.48406 0 0
9:54 am 09:54 Sunny 80 26.7 71 21.7 74 74 SSE 10 17 30.03 1017 9 14.48406 0 0
10:54 am 10:54 Sunny 84 28.9 72 22.2 67 67 SSE 13 20 30.02 1017 9 14.48406 0 0
11:54 am 11:54 Sunny 86 30 73 22.8 65 65 SSE 13 20 30.01 1016 9 14.48406 0 0
12:54 pm 12:54 Mostly Sunny 88 31.1 73 22.8 61 61 S 18 30 30 1016 9 14.48406 0 0
1:54 pm 13:54 Partly Cloudy 89 31.7 72 22.2 57 57 SSE 16 26 29.98 1015 10 16.0934 0 0
2:54 pm 14:54 Mostly Sunny 90 32.2 72 22.2 56 56 S 15 24 29.97 1015 9 14.48406 0 0
3:54 pm 15:54 Mostly Sunny 90 32.2 72 22.2 56 56 S 17 28 29.97 1015 9 14.48406 0 0
4:54 pm 16:54 Partly Cloudy 91 32.8 73 22.8 56 56 S 13 20 29.96 1015 9 14.48406 0 0
5:54 pm 17:54 Mostly Sunny 87 30.6 73 22.8 63 63 S 14 22 29.96 1015 9 14.48406 0 0
6:54 pm 18:54 Sunny 87 30.6 73 22.8 63 63 S 12 19 29.94 1014 9 14.48406 0 0
7:54 pm 19:54 Sunny 86 30 72 22.2 63 63 SSE 12 19 29.94 1014 9 14.48406 0 0
8:54 pm 20:54 Clear 84 28.9 72 22.2 67 67 S 10 17 29.96 1014 9 14.48406 0 0
9:54 pm 21:54 Clear 82 27.8 73 22.8 74 74 SSE 12 19 29.98 1015 10 16.0934 0 0
10:54 pm 22:54 Clear 80 26.7 73 22.8 79 79 S 10 17 29.98 1015 10 16.0934 0 0
11:54 pm 23:54 Clear 79 26.1 73 22.8 82 82 S 9 15 29.98 1015 10 16.0934 0 0

Powered by AerisWeather